Time;durP1;ratioP1;P1;durP2;ratioP2;P2;SDS_P1;SDS_P2;PMS_P1;PMS_P2;Temp;Humidity;BMP_temperature;BMP_pressure;BME280_temperature;BME280_humidity;BME280_pressure;Samples;Min_cycle;Max_cycle;Signal;HPM_P1;HPM_P2
2023/07/20 00:00:46;;;;;;;11.45;10.60;;;16.10;99.90;;;;;;5010572;28;20042;-81
2023/07/20 00:03:19;;;;;;;10.30;9.55;;;16.00;99.90;;;;;;5008824;28;20045;-81
2023/07/20 00:05:45;;;;;;;11.13;10.23;;;16.00;99.90;;;;;;5008648;28;20045;-81
2023/07/20 00:08:11;;;;;;;10.27;9.45;;;15.90;99.90;;;;;;5013278;28;20075;-82
2023/07/20 00:10:37;;;;;;;10.73;9.75;;;15.90;99.90;;;;;;5029758;28;20056;-81
2023/07/20 00:13:03;;;;;;;9.95;9.18;;;15.90;99.90;;;;;;5029818;28;20129;-82
2023/07/20 00:15:28;;;;;;;7.82;6.93;;;15.90;99.90;;;;;;5028464;28;20427;-81
2023/07/20 00:17:54;;;;;;;6.82;6.18;;;15.80;99.90;;;;;;5028120;28;20083;-81
2023/07/20 00:20:20;;;;;;;9.20;8.48;;;15.80;99.90;;;;;;5011907;28;20049;-82
2023/07/20 00:22:45;;;;;;;11.15;10.18;;;15.80;99.90;;;;;;5026620;28;20060;-81
2023/07/20 00:25:11;;;;;;;13.85;12.98;;;15.80;99.90;;;;;;4992053;28;20070;-81
2023/07/20 00:27:37;;;;;;;9.57;8.93;;;15.80;99.90;;;;;;5008434;28;20042;-82
2023/07/20 00:30:04;;;;;;;8.52;7.82;;;15.80;99.90;;;;;;5008425;28;20048;-81
2023/07/20 00:32:30;;;;;;;10.75;10.00;;;15.80;99.90;;;;;;5008592;28;20041;-82
2023/07/20 00:34:56;;;;;;;11.32;10.48;;;15.80;99.90;;;;;;5009708;28;20041;-81
2023/07/20 00:37:21;;;;;;;8.63;7.93;;;15.80;99.90;;;;;;5008001;28;20073;-81
2023/07/20 00:39:47;;;;;;;8.73;8.05;;;15.80;99.90;;;;;;5020869;28;20076;-81
2023/07/20 00:42:12;;;;;;;11.70;10.90;;;15.80;99.90;;;;;;5028025;28;20045;-81
2023/07/20 00:44:38;;;;;;;7.90;7.30;;;15.80;99.90;;;;;;5028247;28;20045;-81
2023/07/20 00:47:05;;;;;;;9.90;9.10;;;15.80;99.90;;;;;;5029282;28;20037;-81
2023/07/20 00:49:31;;;;;;;8.68;7.97;;;15.70;99.90;;;;;;5011830;28;20083;-82
2023/07/20 00:51:58;;;;;;;11.80;10.95;;;15.70;99.90;;;;;;5028960;28;20042;-81
2023/07/20 00:54:24;;;;;;;9.00;8.30;;;15.60;99.90;;;;;;5016405;28;20757;-81
2023/07/20 00:56:52;;;;;;;10.07;8.07;;;15.70;99.90;;;;;;5008220;28;20042;-82
2023/07/20 00:59:18;;;;;;;9.20;8.50;;;15.70;99.90;;;;;;5008260;28;20133;-81
2023/07/20 01:01:43;;;;;;;10.75;9.85;;;15.70;99.90;;;;;;5008200;28;20463;-82
2023/07/20 01:04:13;;;;;;;8.98;8.13;;;15.60;99.90;;;;;;5008260;28;20037;-81
2023/07/20 01:06:38;;;;;;;8.85;8.07;;;15.60;99.90;;;;;;5007559;28;20048;-82
2023/07/20 01:09:11;;;;;;;10.48;9.55;;;15.50;99.90;;;;;;5023874;28;20404;-81
2023/07/20 01:11:59;;;;;;;14.15;13.02;;;15.40;99.90;;;;;;5033071;28;20525;-82
2023/07/20 01:14:25;;;;;;;12.57;11.50;;;15.30;99.90;;;;;;5031927;28;20043;-81
2023/07/20 01:16:52;;;;;;;14.73;13.68;;;15.20;99.90;;;;;;5031716;28;20041;-81
2023/07/20 01:19:18;;;;;;;13.93;12.98;;;15.10;99.90;;;;;;5033186;28;20041;-81
2023/07/20 01:22:04;;;;;;;11.57;10.68;;;15.00;99.90;;;;;;5032105;28;20049;-81
2023/07/20 01:24:51;;;;;;;14.00;12.85;;;15.00;99.90;;;;;;4992294;28;20043;-80
2023/07/20 01:27:46;;;;;;;13.80;12.80;;;14.90;99.90;;;;;;4993731;28;20062;-81
2023/07/20 01:30:39;;;;;;;13.57;12.52;;;14.80;99.90;;;;;;4992460;28;20069;-82
2023/07/20 01:33:07;;;;;;;16.63;15.43;;;14.70;99.90;;;;;;4991929;28;20042;-81
2023/07/20 01:35:33;;;;;;;15.68;14.27;;;14.60;99.90;;;;;;4992072;28;20042;-81
2023/07/20 01:38:00;;;;;;;14.10;13.00;;;14.40;99.90;;;;;;5001823;28;20060;-81
2023/07/20 01:40:26;;;;;;;13.13;12.02;;;14.40;99.90;;;;;;5031415;28;20049;-81
2023/07/20 01:42:53;;;;;;;14.40;13.40;;;14.30;99.90;;;;;;5032668;28;20053;-81
2023/07/20 01:45:19;;;;;;;15.43;14.32;;;14.20;99.90;;;;;;5014697;28;20041;-81
2023/07/20 01:47:45;;;;;;;16.23;15.05;;;14.10;99.90;;;;;;5032740;28;20037;-81
2023/07/20 01:50:10;;;;;;;16.45;15.15;;;14.10;99.90;;;;;;5031211;28;20037;-81
2023/07/20 01:52:36;;;;;;;16.23;15.02;;;14.00;99.90;;;;;;5028124;28;20050;-81
2023/07/20 01:55:02;;;;;;;14.25;13.10;;;13.90;99.90;;;;;;5012742;28;20091;-81
2023/07/20 01:57:27;;;;;;;15.73;14.45;;;13.90;99.90;;;;;;5012386;28;20049;-81
2023/07/20 01:59:53;;;;;;;13.93;12.82;;;13.80;99.90;;;;;;5012476;28;20034;-81
2023/07/20 02:02:20;;;;;;;14.82;13.52;;;13.80;99.90;;;;;;5011207;28;20034;-81
2023/07/20 02:04:46;;;;;;;14.63;13.43;;;13.80;99.90;;;;;;5011185;28;20057;-81
2023/07/20 02:07:11;;;;;;;13.32;12.25;;;13.70;99.90;;;;;;5013246;28;20044;-81
2023/07/20 02:09:37;;;;;;;15.15;14.02;;;13.80;99.90;;;;;;5013931;28;20045;-81
2023/07/20 02:12:03;;;;;;;15.90;14.80;;;13.70;99.90;;;;;;5030597;28;20577;-81
2023/07/20 02:14:29;;;;;;;14.60;13.50;;;13.60;99.90;;;;;;5031993;28;20064;-81
2023/07/20 02:16:57;;;;;;;14.57;13.20;;;13.40;99.90;;;;;;5030340;28;20056;-81
2023/07/20 02:19:25;;;;;;;15.52;14.13;;;13.60;99.90;;;;;;5013686;28;20176;-81
2023/07/20 02:21:51;;;;;;;13.95;12.95;;;13.40;99.90;;;;;;5013004;28;20049;-82
2023/07/20 02:24:16;;;;;;;14.45;13.45;;;13.40;99.90;;;;;;5010645;28;20064;-81
2023/07/20 02:26:43;;;;;;;14.32;13.23;;;13.30;99.90;;;;;;4994489;28;20046;-80
2023/07/20 02:29:11;;;;;;;14.73;13.70;;;13.30;99.90;;;;;;5010942;28;20041;-81
2023/07/20 02:31:39;;;;;;;15.95;14.60;;;13.30;99.90;;;;;;5010671;28;20046;-81
2023/07/20 02:34:05;;;;;;;14.50;13.20;;;13.20;99.90;;;;;;5011618;28;20064;-82
2023/07/20 02:36:32;;;;;;;17.48;16.25;;;13.20;99.90;;;;;;5011883;28;20041;-82
2023/07/20 02:38:58;;;;;;;15.70;14.60;;;13.10;99.90;;;;;;5030111;28;20048;-81
2023/07/20 02:41:24;;;;;;;17.70;16.15;;;13.10;99.90;;;;;;5030248;28;20053;-81
2023/07/20 02:43:50;;;;;;;17.40;16.20;;;13.10;99.90;;;;;;5030254;28;20037;-81
2023/07/20 02:46:16;;;;;;;20.65;19.15;;;13.00;99.90;;;;;;5029812;28;20091;-81
2023/07/20 02:48:41;;;;;;;17.70;16.20;;;13.00;99.90;;;;;;5030829;28;20030;-81
2023/07/20 02:51:07;;;;;;;15.55;14.40;;;13.00;99.90;;;;;;5013917;28;20053;-81
2023/07/20 02:53:33;;;;;;;17.23;15.85;;;12.90;99.90;;;;;;5010869;28;20084;-81
2023/07/20 02:55:59;;;;;;;17.38;16.10;;;12.90;99.90;;;;;;5011714;28;20080;-81
2023/07/20 02:58:25;;;;;;;16.17;14.98;;;12.90;99.90;;;;;;5011357;28;20041;-81
2023/07/20 03:00:50;;;;;;;14.80;13.60;;;13.20;99.90;;;;;;5010168;28;20041;-81
2023/07/20 03:03:16;;;;;;;17.40;16.17;;;12.80;99.90;;;;;;5011171;28;20551;-81
2023/07/20 03:05:42;;;;;;;15.32;14.13;;;12.70;99.90;;;;;;5011470;28;20385;-81
2023/07/20 03:08:08;;;;;;;17.77;16.38;;;12.70;99.90;;;;;;5026995;28;20475;-81
2023/07/20 03:10:40;;;;;;;18.42;17.10;;;12.70;99.90;;;;;;5029771;28;20048;-81
2023/07/20 03:13:06;;;;;;;17.05;15.65;;;12.70;99.90;;;;;;5030732;28;20503;-81
2023/07/20 03:15:32;;;;;;;17.05;15.63;;;12.60;99.90;;;;;;5029578;28;20041;-80
2023/07/20 03:17:58;;;;;;;18.73;17.35;;;12.70;99.90;;;;;;5012459;28;20408;-81
2023/07/20 03:20:24;;;;;;;19.60;18.27;;;12.60;99.90;;;;;;5031056;28;20049;-81
2023/07/20 03:22:50;;;;;;;18.75;17.35;;;12.90;99.90;;;;;;5030376;28;20030;-81
2023/07/20 03:25:15;;;;;;;18.73;17.33;;;12.60;99.90;;;;;;5030441;28;20053;-81
2023/07/20 03:27:41;;;;;;;19.27;17.67;;;12.50;99.90;;;;;;5029457;28;20484;-81
2023/07/20 03:30:09;;;;;;;20.75;19.17;;;12.50;99.90;;;;;;5029095;28;20183;-81
2023/07/20 03:32:35;;;;;;;21.52;20.02;;;12.50;99.90;;;;;;5028637;28;20412;-82
2023/07/20 03:35:01;;;;;;;20.45;18.85;;;12.40;99.90;;;;;;5030636;28;20129;-81
2023/07/20 03:37:27;;;;;;;19.40;17.95;;;12.40;99.90;;;;;;5022593;28;20037;-80
2023/07/20 03:39:52;;;;;;;19.98;18.48;;;12.40;99.90;;;;;;5013668;28;20495;-82
2023/07/20 03:42:18;;;;;;;17.20;15.80;;;12.30;99.90;;;;;;5012749;28;20119;-82
2023/07/20 03:44:44;;;;;;;18.83;17.42;;;12.30;99.90;;;;;;5028924;28;20049;-81
2023/07/20 03:47:09;;;;;;;20.65;19.15;;;12.30;99.90;;;;;;5030208;28;20037;-81
2023/07/20 03:49:35;;;;;;;18.98;17.67;;;12.30;99.90;;;;;;5030116;28;20057;-81
2023/07/20 03:52:03;;;;;;;18.50;17.23;;;12.30;99.90;;;;;;5029136;28;20063;-81
2023/07/20 03:54:29;;;;;;;19.25;17.95;;;12.30;99.90;;;;;;5029088;28;20044;-81
2023/07/20 03:56:57;;;;;;;20.02;18.52;;;12.30;99.90;;;;;;5014473;28;20116;-82
2023/07/20 03:59:23;;;;;;;20.98;19.42;;;12.20;99.90;;;;;;5014792;28;20579;-81
2023/07/20 04:01:48;;;;;;;20.30;18.98;;;12.40;99.90;;;;;;5028456;28;20117;-81
2023/07/20 04:04:15;;;;;;;22.75;21.20;;;12.30;99.90;;;;;;5029970;28;20037;-80
2023/07/20 04:06:44;;;;;;;19.98;18.52;;;12.30;99.90;;;;;;5030269;28;20045;-81
2023/07/20 04:09:11;;;;;;;18.25;16.90;;;12.30;99.90;;;;;;5011035;28;20046;-81
2023/07/20 04:11:36;;;;;;;19.85;18.35;;;12.30;99.90;;;;;;5010144;28;20046;-81
2023/07/20 04:14:02;;;;;;;17.63;16.40;;;12.30;99.90;;;;;;5009070;28;20107;-82
2023/07/20 04:16:27;;;;;;;18.30;17.10;;;12.40;99.90;;;;;;5009613;28;20480;-81
2023/07/20 04:18:56;;;;;;;19.52;18.02;;;12.30;99.90;;;;;;5009964;28;20144;-81
2023/07/20 04:21:22;;;;;;;18.55;17.08;;;12.30;99.90;;;;;;5010850;28;20045;-81
2023/07/20 04:23:47;;;;;;;18.15;16.75;;;12.30;99.90;;;;;;5008764;28;20046;-82
2023/07/20 04:26:14;;;;;;;17.90;16.70;;;12.40;99.90;;;;;;5028428;28;20067;-81
2023/07/20 04:28:42;;;;;;;19.63;18.05;;;12.40;99.90;;;;;;5029850;28;20118;-82
2023/07/20 04:31:15;;;;;;;17.55;16.33;;;12.40;99.90;;;;;;5028533;28;20423;-81
2023/07/20 04:33:41;;;;;;;16.90;15.60;;;12.50;99.90;;;;;;5029681;28;20175;-81
2023/07/20 04:36:07;;;;;;;18.30;16.77;;;12.50;99.90;;;;;;5029136;28;20037;-82
2023/07/20 04:38:34;;;;;;;19.15;17.75;;;12.60;99.90;;;;;;5027704;28;20049;-82
2023/07/20 04:40:59;;;;;;;17.45;16.20;;;12.70;99.90;;;;;;4989940;28;20089;-82
2023/07/20 04:43:26;;;;;;;20.35;18.73;;;12.70;99.90;;;;;;5010802;28;20042;-82
2023/07/20 04:45:51;;;;;;;17.05;15.75;;;12.70;99.90;;;;;;5009734;28;20046;-82
2023/07/20 04:48:17;;;;;;;20.02;18.52;;;12.70;99.90;;;;;;5017276;28;20037;-82
2023/07/20 04:50:46;;;;;;;22.20;20.30;;;12.80;99.90;;;;;;5028619;28;20041;-85
2023/07/20 04:53:12;;;;;;;21.10;19.60;;;12.80;99.90;;;;;;5027969;28;20054;-82
2023/07/20 04:55:39;;;;;;;18.33;17.13;;;12.90;99.90;;;;;;5027925;28;20048;-82
2023/07/20 04:58:06;;;;;;;15.93;14.82;;;13.00;99.90;;;;;;5027857;28;20084;-81
2023/07/20 05:00:35;;;;;;;19.73;18.33;;;13.10;99.90;;;;;;5029321;28;20045;-82
2023/07/20 05:03:01;;;;;;;16.20;15.00;;;13.20;99.90;;;;;;5021838;28;20059;-82
2023/07/20 05:05:26;;;;;;;14.65;13.35;;;13.30;99.90;;;;;;5010430;28;20506;-82
2023/07/20 05:07:52;;;;;;;15.68;14.48;;;13.50;99.90;;;;;;5011096;28;20038;-82
2023/07/20 05:10:18;;;;;;;13.30;12.30;;;13.50;99.90;;;;;;5009064;28;20042;-82
2023/07/20 05:12:44;;;;;;;14.20;13.05;;;13.70;99.90;;;;;;5008205;28;20048;-83
2023/07/20 05:15:10;;;;;;;12.38;11.30;;;13.80;99.90;;;;;;5010288;28;20497;-82
2023/07/20 05:17:35;;;;;;;14.02;12.95;;;13.90;99.90;;;;;;5014670;28;20530;-83
2023/07/20 05:20:01;;;;;;;12.43;11.45;;;14.00;99.90;;;;;;5016874;28;20060;-82
2023/07/20 05:22:27;;;;;;;14.40;13.32;;;14.40;99.90;;;;;;5008939;28;20409;-82
2023/07/20 05:24:52;;;;;;;12.18;11.18;;;14.60;99.90;;;;;;5008167;28;20084;-83
2023/07/20 05:27:18;;;;;;;12.23;11.02;;;14.80;99.90;;;;;;4991730;28;20045;-84
2023/07/20 05:29:46;;;;;;;12.10;11.10;;;15.00;99.90;;;;;;5009903;28;20408;-83
2023/07/20 05:32:15;;;;;;;12.48;11.57;;;15.30;99.90;;;;;;5014199;28;20450;-83
2023/07/20 05:34:41;;;;;;;6.53;5.07;;;16.60;99.90;;;;;;5013346;28;20050;-83
2023/07/20 05:37:06;;;;;;;6.65;4.22;;;17.40;99.90;;;;;;5014219;28;20042;-84
2023/07/20 05:39:33;;;;;;;5.93;4.72;;;17.90;99.90;;;;;;5031179;28;20427;-83
2023/07/20 05:41:58;;;;;;;5.60;4.30;;;18.70;99.90;;;;;;5031571;28;20109;-84
2023/07/20 05:44:24;;;;;;;8.38;6.05;;;19.80;99.90;;;;;;5030357;28;20157;-83
2023/07/20 05:46:50;;;;;;;6.85;4.25;;;21.10;99.90;;;;;;5025876;28;20462;-83
2023/07/20 05:49:15;;;;;;;4.38;3.53;;;22.20;99.90;;;;;;5009732;28;20037;-83
2023/07/20 05:51:41;;;;;;;4.25;3.40;;;22.90;99.90;;;;;;5007530;28;20096;-84
2023/07/20 05:54:06;;;;;;;3.92;2.72;;;23.20;99.90;;;;;;5009337;28;20046;-83
2023/07/20 05:56:32;;;;;;;6.32;4.43;;;23.80;99.90;;;;;;5011299;28;20427;-84
2023/07/20 05:58:58;;;;;;;4.40;3.53;;;24.60;99.90;;;;;;5012728;28;20480;-84
2023/07/20 06:01:27;;;;;;;5.57;5.07;;;25.30;99.90;;;;;;5015898;28;20108;-84
2023/07/20 06:03:53;;;;;;;5.00;2.95;;;25.60;99.90;;;;;;5032858;28;20104;-84
2023/07/20 06:06:19;;;;;;;5.03;1.80;;;26.20;98.80;;;;;;5033123;28;20128;-84
2023/07/20 06:08:45;;;;;;;4.80;3.17;;;26.40;97.30;;;;;;5031497;28;20053;-84
2023/07/20 06:11:11;;;;;;;42.22;39.88;;;26.30;97.90;;;;;;5029654;28;20072;-83
2023/07/20 06:13:36;;;;;;;19.55;18.35;;;26.60;97.80;;;;;;5030552;28;20305;-84
2023/07/20 06:16:03;;;;;;;42.28;39.70;;;27.00;96.90;;;;;;5027395;28;20522;-84
2023/07/20 06:18:30;;;;;;;278.20;259.27;;;27.30;96.60;;;;;;5010819;28;20046;-84
2023/07/20 06:20:56;;;;;;;563.13;521.40;;;27.40;96.40;;;;;;4995291;28;20081;-84
2023/07/20 06:23:21;;;;;;;802.13;738.22;;;27.60;95.70;;;;;;5013000;28;20121;-83
2023/07/20 06:25:47;;;;;;;790.00;728.60;;;27.70;95.30;;;;;;5013773;28;20045;-84
2023/07/20 06:28:13;;;;;;;877.42;804.67;;;27.80;95.00;;;;;;5032714;28;20088;-84
2023/07/20 06:30:39;;;;;;;906.03;829.78;;;28.30;94.10;;;;;;5032331;28;20041;-84
2023/07/20 06:33:05;;;;;;;952.88;868.03;;;28.40;94.50;;;;;;5032117;28;20040;-84
2023/07/20 06:35:31;;;;;;;1023.38;923.25;;;28.50;95.20;;;;;;5032383;28;20045;-84
2023/07/20 06:37:57;;;;;;;982.20;892.60;;;28.60;94.80;;;;;;5034573;28;20034;-84
2023/07/20 06:40:23;;;;;;;1050.35;944.42;;;28.80;93.20;;;;;;5032525;28;20033;-85
2023/07/20 06:42:48;;;;;;;1067.22;953.08;;;28.80;93.70;;;;;;5034698;28;20052;-85
2023/07/20 06:45:14;;;;;;;1059.60;949.58;;;29.00;94.20;;;;;;5033339;28;20045;-84
2023/07/20 06:47:40;;;;;;;1081.75;967.33;;;29.10;94.10;;;;;;5034366;28;20041;-85
2023/07/20 06:50:07;;;;;;;1075.18;958.05;;;29.50;92.60;;;;;;5033324;28;20037;-84
2023/07/20 06:52:33;;;;;;;1340.25;999.90;;;29.40;92.30;;;;;;5035215;28;20407;-84
2023/07/20 06:54:59;;;;;;;1091.03;973.25;;;29.40;92.80;;;;;;5032201;28;20038;-84
2023/07/20 06:57:25;;;;;;;1244.32;999.72;;;29.60;93.20;;;;;;4998902;28;20053;-84
2023/07/20 06:59:51;;;;;;;1493.80;999.90;;;29.90;92.50;;;;;;5012390;28;20073;-85
2023/07/20 07:02:16;;;;;;;1374.00;999.90;;;30.00;91.80;;;;;;5013216;28;20127;-85
2023/07/20 07:04:42;;;;;;;1151.63;993.25;;;29.90;92.10;;;;;;5013578;28;20113;-85
2023/07/20 07:07:09;;;;;;;1265.00;999.90;;;30.30;92.50;;;;;;5015469;28;20041;-84
2023/07/20 07:09:35;;;;;;;1721.82;999.90;;;30.40;90.80;;;;;;5012771;28;20158;-84
2023/07/20 07:12:00;;;;;;;1368.38;999.90;;;30.40;91.70;;;;;;5014579;28;20269;-84
2023/07/20 07:14:26;;;;;;;1340.00;999.90;;;30.50;92.50;;;;;;4996677;28;20037;-85
2023/07/20 07:16:52;;;;;;;1454.28;999.90;;;30.60;91.10;;;;;;4996327;28;20480;-84
2023/07/20 07:19:17;;;;;;;1469.93;999.90;;;30.40;91.00;;;;;;4996318;28;20034;-84
2023/07/20 07:21:43;;;;;;;1316.45;999.90;;;30.10;90.60;;;;;;4996395;28;20613;-83
2023/07/20 07:24:09;;;;;;;1191.25;998.70;;;30.00;90.80;;;;;;5012131;28;20060;-85
2023/07/20 07:26:36;;;;;;;1149.55;995.58;;;29.80;90.90;;;;;;5013287;28;20038;-85
2023/07/20 07:29:02;;;;;;;1224.13;998.97;;;30.20;90.30;;;;;;5013312;28;20758;-84
2023/07/20 07:31:30;;;;;;;1318.90;999.90;;;29.90;89.90;;;;;;5012684;28;20096;-84
2023/07/20 07:33:56;;;;;;;1100.85;982.63;;;29.80;90.90;;;;;;5011816;28;20536;-85
2023/07/20 07:36:24;;;;;;;1201.35;994.78;;;29.70;90.20;;;;;;5014257;28;20038;-84
2023/07/20 07:38:50;;;;;;;1303.82;999.90;;;30.00;90.90;;;;;;4997374;28;20056;-85
2023/07/20 07:41:15;;;;;;;1374.97;999.90;;;30.30;91.00;;;;;;5011732;28;20112;-84
2023/07/20 07:43:41;;;;;;;1305.07;999.90;;;29.70;88.70;;;;;;5024149;28;20097;-84
2023/07/20 07:46:07;;;;;;;1087.75;969.20;;;29.00;90.50;;;;;;5011759;28;20038;-84
2023/07/20 07:48:32;;;;;;;1084.28;968.42;;;28.80;91.70;;;;;;5013058;28;20068;-84
2023/07/20 07:50:58;;;;;;;1011.55;913.40;;;29.50;91.20;;;;;;4996371;28;20042;-84
2023/07/20 07:53:25;;;;;;;1056.82;945.63;;;29.30;90.10;;;;;;5011392;28;20480;-84
2023/07/20 07:55:52;;;;;;;1071.65;957.15;;;28.10;90.00;;;;;;5016214;28;20071;-84
2023/07/20 07:58:17;;;;;;;1052.85;944.58;;;27.40;91.00;;;;;;5033494;28;20044;-84
2023/07/20 08:00:44;;;;;;;953.30;868.05;;;27.90;91.20;;;;;;5031823;28;20033;-84
2023/07/20 08:03:10;;;;;;;986.17;895.28;;;28.60;90.50;;;;;;5032194;28;20072;-84
2023/07/20 08:05:36;;;;;;;978.63;890.58;;;29.30;89.70;;;;;;5032546;28;20072;-84
2023/07/20 08:08:05;;;;;;;965.30;878.08;;;29.50;90.00;;;;;;5033602;28;20045;-84
2023/07/20 08:10:31;;;;;;;997.17;903.00;;;29.50;89.40;;;;;;5028362;28;20301;-85
2023/07/20 08:12:57;;;;;;;973.95;886.30;;;29.00;90.00;;;;;;5013418;28;20033;-84
2023/07/20 08:15:22;;;;;;;1038.70;936.03;;;29.70;90.30;;;;;;5012256;28;20466;-84
2023/07/20 08:17:49;;;;;;;1040.43;934.47;;;29.60;88.70;;;;;;5011307;28;20065;-84
2023/07/20 08:20:16;;;;;;;1054.50;948.17;;;29.60;88.80;;;;;;5012370;28;20068;-85
2023/07/20 08:22:42;;;;;;;1040.63;932.38;;;28.60;88.70;;;;;;5011019;28;20396;-84
2023/07/20 08:25:09;;;;;;;1035.63;930.28;;;27.50;89.40;;;;;;5013517;28;20033;-84
2023/07/20 08:27:35;;;;;;;970.97;880.45;;;27.10;90.60;;;;;;5031394;28;20096;-84
2023/07/20 08:30:01;;;;;;;900.40;824.75;;;27.40;90.50;;;;;;5031964;28;20037;-84
2023/07/20 08:32:27;;;;;;;870.63;800.00;;;27.90;90.40;;;;;;5033042;28;20041;-84
2023/07/20 08:34:52;;;;;;;863.22;793.95;;;28.40;89.50;;;;;;5030862;28;20621;-84
2023/07/20 08:37:18;;;;;;;904.80;828.53;;;28.40;88.90;;;;;;5014304;28;20096;-84
2023/07/20 08:39:44;;;;;;;901.40;825.25;;;28.50;86.80;;;;;;5030863;28;20037;-83
2023/07/20 08:42:10;;;;;;;886.90;813.25;;;28.60;88.00;;;;;;5013003;28;20049;-84
2023/07/20 08:44:38;;;;;;;949.88;863.10;;;28.40;87.00;;;;;;5013349;28;20073;-84
2023/07/20 08:47:05;;;;;;;905.92;826.83;;;27.20;87.60;;;;;;5010996;28;20095;-83
2023/07/20 08:49:35;;;;;;;896.53;820.72;;;26.80;90.00;;;;;;5012419;28;20050;-84
2023/07/20 08:52:01;;;;;;;842.78;774.25;;;27.10;90.00;;;;;;5013751;28;20046;-84
2023/07/20 08:54:32;;;;;;;911.60;831.05;;;27.10;90.00;;;;;;4995323;28;20553;-84
2023/07/20 08:57:01;;;;;;;946.53;860.70;;;26.30;89.60;;;;;;5008122;28;20034;-83
2023/07/20 08:59:28;;;;;;;903.80;826.35;;;25.50;90.70;;;;;;5030929;28;20495;-84
2023/07/20 09:01:56;;;;;;;775.53;716.50;;;24.70;91.40;;;;;;5028949;28;20051;-83
2023/07/20 09:04:22;;;;;;;739.50;683.35;;;24.00;92.00;;;;;;5030054;28;20037;-84
2023/07/20 09:06:50;;;;;;;684.55;634.53;;;24.00;92.70;;;;;;5029028;28;20034;-84
2023/07/20 09:09:15;;;;;;;728.58;673.88;;;24.40;93.10;;;;;;5030920;28;20037;-83
2023/07/20 09:11:41;;;;;;;733.38;678.38;;;24.80;91.80;;;;;;5016114;28;20084;-84
2023/07/20 09:14:08;;;;;;;762.10;704.50;;;24.80;92.10;;;;;;5010271;28;20042;-83
2023/07/20 09:16:55;;;;;;;689.97;639.83;;;25.00;92.60;;;;;;5009552;28;20133;-84
2023/07/20 09:19:21;;;;;;;729.20;675.20;;;25.30;91.90;;;;;;5010673;28;20142;-83
2023/07/20 09:21:49;;;;;;;743.63;686.78;;;25.20;92.20;;;;;;5010189;28;20038;-84
2023/07/20 09:24:17;;;;;;;731.78;677.28;;;25.10;92.10;;;;;;4994550;28;20049;-84
2023/07/20 09:26:45;;;;;;;722.90;669.55;;;25.00;91.90;;;;;;5025956;28;20045;-84
2023/07/20 09:29:11;;;;;;;720.10;666.50;;;25.30;92.30;;;;;;5032836;28;20510;-84
2023/07/20 09:31:38;;;;;;;692.15;641.08;;;25.70;91.90;;;;;;5036647;28;20048;-83
2023/07/20 09:34:04;;;;;;;700.15;648.88;;;26.10;91.00;;;;;;5036416;28;20229;-84
2023/07/20 09:36:34;;;;;;;718.88;665.08;;;26.20;91.30;;;;;;5018214;28;20478;-83
2023/07/20 09:39:00;;;;;;;673.63;624.60;;;25.80;91.00;;;;;;5033898;28;20438;-83
2023/07/20 09:41:26;;;;;;;493.35;460.05;;;25.00;91.20;;;;;;5018280;28;20069;-83
2023/07/20 09:43:53;;;;;;;342.15;320.98;;;24.40;91.90;;;;;;5013434;28;20050;-83
2023/07/20 09:46:20;;;;;;;227.88;214.95;;;24.00;92.00;;;;;;5014474;28;20049;-83
2023/07/20 09:48:55;;;;;;;256.98;242.05;;;24.40;92.10;;;;;;5014530;28;20053;-84
2023/07/20 09:51:23;;;;;;;381.58;357.88;;;25.30;92.60;;;;;;4997787;28;20042;-83
2023/07/20 09:53:52;;;;;;;366.10;343.95;;;25.60;92.10;;;;;;5011175;28;20030;-84
2023/07/20 09:56:21;;;;;;;385.85;362.02;;;25.30;90.40;;;;;;5002536;28;20514;-84
2023/07/20 09:58:48;;;;;;;390.48;366.70;;;24.90;90.70;;;;;;5014469;28;20064;-84
2023/07/20 10:01:19;;;;;;;459.20;429.08;;;25.30;91.60;;;;;;5032608;28;20415;-84
2023/07/20 10:03:46;;;;;;;494.23;461.00;;;25.70;91.60;;;;;;5014042;28;20072;-84
2023/07/20 10:06:20;;;;;;;480.02;448.73;;;25.50;90.70;;;;;;5030936;28;20049;-84
2023/07/20 10:08:47;;;;;;;409.90;383.88;;;25.00;90.70;;;;;;5014524;28;20395;-84
2023/07/20 10:11:15;;;;;;;327.98;308.70;;;24.40;91.30;;;;;;5020797;28;20564;-83
2023/07/20 10:13:44;;;;;;;278.17;262.30;;;24.20;91.60;;;;;;4994631;28;20122;-83
2023/07/20 10:16:14;;;;;;;224.20;211.60;;;24.00;91.20;;;;;;5010627;28;20089;-83
2023/07/20 10:19:01;;;;;;;157.57;148.80;;;23.80;91.50;;;;;;5010237;28;20171;-83
2023/07/20 10:21:29;;;;;;;220.20;208.02;;;23.70;91.60;;;;;;5012556;28;20037;-84
2023/07/20 10:23:57;;;;;;;243.50;229.70;;;24.20;92.10;;;;;;5012305;28;20042;-83
2023/07/20 10:26:22;;;;;;;195.00;184.32;;;24.50;92.50;;;;;;5015353;28;20051;-84
2023/07/20 10:28:49;;;;;;;166.98;157.80;;;24.20;91.40;;;;;;5030021;28;20411;-83
2023/07/20 10:31:15;;;;;;;139.05;131.45;;;23.80;91.30;;;;;;5031743;28;20489;-84
2023/07/20 10:33:42;;;;;;;154.07;145.35;;;23.80;91.10;;;;;;5031299;28;20056;-83
2023/07/20 10:36:07;;;;;;;166.43;157.30;;;23.80;91.20;;;;;;5030028;28;20045;-84
2023/07/20 10:38:53;;;;;;;196.93;186.18;;;23.90;91.50;;;;;;5013920;28;20045;-84
2023/07/20 10:41:29;;;;;;;217.57;205.73;;;24.20;91.30;;;;;;5007131;28;20160;-83
2023/07/20 10:44:02;;;;;;;217.10;204.75;;;24.40;91.60;;;;;;5010519;28;20523;-83
2023/07/20 10:46:44;;;;;;;218.73;206.65;;;24.60;91.40;;;;;;5009680;28;20252;-83
2023/07/20 10:49:11;;;;;;;245.65;231.80;;;24.70;91.20;;;;;;5009982;28;20096;-83
2023/07/20 10:51:41;;;;;;;199.43;188.52;;;24.90;91.50;;;;;;5011474;28;20129;-84
2023/07/20 10:54:15;;;;;;;207.15;195.27;;;25.20;91.30;;;;;;5011413;28;20085;-83
2023/07/20 10:56:41;;;;;;;286.08;269.50;;;25.20;91.10;;;;;;5021281;28;20069;-83
2023/07/20 10:59:36;;;;;;;348.30;327.50;;;25.00;90.20;;;;;;5029660;28;20064;-83
2023/07/20 11:02:06;;;;;;;249.52;235.65;;;24.50;91.00;;;;;;5029318;28;20113;-83
2023/07/20 11:04:40;;;;;;;170.90;161.48;;;23.90;91.30;;;;;;5031163;28;20087;-83
2023/07/20 11:07:08;;;;;;;83.78;79.07;;;23.70;91.80;;;;;;5029532;28;20052;-83
2023/07/20 11:09:35;;;;;;;67.63;63.78;;;23.50;92.00;;;;;;5030840;28;20041;-84
2023/07/20 11:12:14;;;;;;;52.08;49.25;;;23.50;92.00;;;;;;5014745;28;20049;-83
2023/07/20 11:14:42;;;;;;;43.20;40.55;;;23.30;92.10;;;;;;5010119;28;20141;-83
2023/07/20 11:17:15;;;;;;;19.27;18.08;;;23.30;91.80;;;;;;5010360;28;20404;-83
2023/07/20 11:19:41;;;;;;;62.88;59.30;;;23.40;92.40;;;;;;5009307;28;20041;-83
2023/07/20 11:22:07;;;;;;;78.65;74.25;;;23.60;91.70;;;;;;5010966;28;20041;-83
2023/07/20 11:24:34;;;;;;;135.50;128.05;;;23.90;92.60;;;;;;4993223;28;20145;-83
2023/07/20 11:27:01;;;;;;;192.13;181.35;;;24.50;92.00;;;;;;5026833;28;20091;-83
2023/07/20 11:29:27;;;;;;;234.70;221.10;;;24.80;91.80;;;;;;5030056;28;20045;-83
2023/07/20 11:31:53;;;;;;;236.50;223.35;;;24.70;91.10;;;;;;5029045;28;20126;-83
2023/07/20 11:34:20;;;;;;;256.00;241.35;;;24.50;91.40;;;;;;5029427;28;20084;-83
2023/07/20 11:36:47;;;;;;;214.38;202.55;;;24.40;91.80;;;;;;5029050;28;20038;-83
2023/07/20 11:39:15;;;;;;;202.73;191.40;;;24.30;91.70;;;;;;5029950;28;20038;-84
2023/07/20 11:41:55;;;;;;;143.30;135.60;;;24.20;91.50;;;;;;4994473;28;20060;-83
2023/07/20 11:44:28;;;;;;;149.90;141.63;;;24.00;91.90;;;;;;5008348;28;20108;-83
2023/07/20 11:47:10;;;;;;;100.45;94.97;;;23.90;91.70;;;;;;5009098;28;20476;-83
2023/07/20 11:49:41;;;;;;;93.07;87.97;;;23.80;91.70;;;;;;5009114;28;20251;-82
2023/07/20 11:52:09;;;;;;;88.72;84.03;;;23.60;91.70;;;;;;5009624;28;20045;-83
2023/07/20 11:54:36;;;;;;;66.47;62.72;;;23.50;91.50;;;;;;5008861;28;20113;-83
2023/07/20 11:57:03;;;;;;;49.58;46.80;;;23.60;92.00;;;;;;5022492;28;20045;-83
2023/07/20 11:59:28;;;;;;;68.57;64.88;;;23.60;92.30;;;;;;5027826;28;20040;-83
2023/07/20 12:01:54;;;;;;;105.93;100.07;;;23.90;92.70;;;;;;5028678;28;20400;-83
2023/07/20 12:04:23;;;;;;;135.35;127.95;;;24.40;91.80;;;;;;5029561;28;20033;-83
2023/07/20 12:06:48;;;;;;;225.90;213.35;;;24.70;90.90;;;;;;5011945;28;20040;-83
2023/07/20 12:09:16;;;;;;;207.10;195.60;;;24.50;90.70;;;;;;5028164;28;20033;-83
2023/07/20 12:11:44;;;;;;;158.93;150.20;;;24.00;91.10;;;;;;5015014;28;20076;-83
2023/07/20 12:14:10;;;;;;;107.10;101.13;;;23.80;91.60;;;;;;5008091;28;20033;-83
2023/07/20 12:16:38;;;;;;;109.47;103.72;;;23.60;91.90;;;;;;5008365;28;20037;-83
2023/07/20 12:19:11;;;;;;;77.65;73.53;;;23.50;91.70;;;;;;5008630;28;20100;-83